createdAt,value
2023-05-30T00:01:40.722Z,59.21
2023-05-30T00:04:43.968Z,59.88
2023-05-30T00:07:46.643Z,60.49
2023-05-30T00:10:49.419Z,61.44
2023-05-30T00:13:53.846Z,61.53
2023-05-30T00:16:57.599Z,62.17
2023-05-30T00:20:00.833Z,62.39
2023-05-30T00:23:04.022Z,62.07
2023-05-30T00:26:09.555Z,62.25
2023-05-30T00:29:13.671Z,62.17
2023-05-30T00:32:16.338Z,62.23
2023-05-30T00:35:19.212Z,63.30
2023-05-30T00:38:22.005Z,63.92
2023-05-30T00:41:24.934Z,64.91
2023-05-30T00:44:29.015Z,63.50
2023-05-30T00:47:31.841Z,62.06
2023-05-30T00:50:35.447Z,60.92
2023-05-30T00:53:39.393Z,60.12
2023-05-30T00:56:42.830Z,59.64
2023-05-30T00:59:47.830Z,60.33
2023-05-30T01:02:51.369Z,60.17
2023-05-30T01:05:54.799Z,60.48
2023-05-30T01:08:59.836Z,60.31
2023-05-30T01:12:14.113Z,60.62
2023-05-30T01:15:23.092Z,60.43
2023-05-30T01:18:31.433Z,60.74
2023-05-30T01:21:39.027Z,60.48
2023-05-30T01:24:53.227Z,60.80
2023-05-30T01:28:07.864Z,60.79
2023-05-30T01:31:11.899Z,61.28
2023-05-30T01:34:15.825Z,61.09
2023-05-30T01:37:18.598Z,61.37
2023-05-30T01:40:25.008Z,61.31
2023-05-30T01:43:41.931Z,61.40
2023-05-30T01:46:50.844Z,61.66
2023-05-30T01:50:03.904Z,61.65
2023-05-30T01:53:12.634Z,62.26
2023-05-30T01:56:16.861Z,62.36
2023-05-30T01:59:22.803Z,62.39
2023-05-30T02:02:25.707Z,62.71
2023-05-30T02:05:28.708Z,62.87
2023-05-30T02:08:31.421Z,62.83
2023-05-30T02:11:34.177Z,63.15
2023-05-30T02:14:38.629Z,63.05
2023-05-30T02:17:41.342Z,63.27
2023-05-30T02:20:44.212Z,63.49
2023-05-30T02:23:47.047Z,63.21
2023-05-30T02:26:49.723Z,63.32
2023-05-30T02:29:53.818Z,63.67
2023-05-30T02:32:56.557Z,63.98
2023-05-30T02:35:59.394Z,64.84
2023-05-30T02:39:07.569Z,64.42
2023-05-30T02:42:10.533Z,64.49
2023-05-30T02:45:14.772Z,64.81
2023-05-30T02:48:17.462Z,64.78
2023-05-30T02:51:20.513Z,64.70
2023-05-30T02:54:24.309Z,64.85
2023-05-30T02:57:27.159Z,64.79
2023-05-30T03:00:32.333Z,65.28
2023-05-30T03:03:36.014Z,65.14
2023-05-30T03:06:39.821Z,65.90
2023-05-30T03:09:42.809Z,65.93
2023-05-30T03:12:45.786Z,65.97
2023-05-30T03:15:50.471Z,65.87
2023-05-30T03:18:53.304Z,66.01
2023-05-30T03:21:56.244Z,66.23
2023-05-30T03:24:58.951Z,66.72
2023-05-30T03:28:07.043Z,67.17
2023-05-30T03:31:11.969Z,66.98
2023-05-30T03:34:14.779Z,66.52
2023-05-30T03:37:17.569Z,66.74
2023-05-30T03:40:20.291Z,66.77
2023-05-30T03:43:22.958Z,66.68
2023-05-30T03:46:27.106Z,66.72
2023-05-30T03:49:29.875Z,66.70
2023-05-30T03:52:32.603Z,66.73
2023-05-30T03:55:35.645Z,67.04
2023-05-30T03:58:38.446Z,66.99
2023-05-30T04:01:42.618Z,66.57
2023-05-30T04:04:45.592Z,66.73
2023-05-30T04:07:49.420Z,66.49
2023-05-30T04:10:52.324Z,66.48
2023-05-30T04:13:55.168Z,66.57
2023-05-30T04:16:59.418Z,65.96
2023-05-30T04:20:02.915Z,65.90
2023-05-30T04:23:06.076Z,65.55
2023-05-30T04:26:09.812Z,65.07
2023-05-30T04:29:12.513Z,65.00
2023-05-30T04:32:17.490Z,65.20
2023-05-30T04:35:21.115Z,65.05
2023-05-30T04:38:23.791Z,64.95
2023-05-30T04:41:27.153Z,64.29
2023-05-30T04:44:29.912Z,64.37
2023-05-30T04:47:34.524Z,64.23
2023-05-30T04:50:38.460Z,63.91
2023-05-30T04:53:41.493Z,62.89
2023-05-30T04:56:44.200Z,62.37
2023-05-30T04:59:47.421Z,60.92
2023-05-30T05:02:52.543Z,59.55
2023-05-30T05:05:55.387Z,58.13
2023-05-30T05:08:59.183Z,56.28
2023-05-30T05:12:04.564Z,54.79
2023-05-30T05:15:08.948Z,52.43
2023-05-30T05:18:13.019Z,50.05
2023-05-30T05:21:16.299Z,48.48
2023-05-30T05:24:19.015Z,47.55
2023-05-30T05:27:21.725Z,46.34
2023-05-30T05:30:24.403Z,45.47
2023-05-30T05:33:28.511Z,45.39
2023-05-30T05:36:31.308Z,45.57
2023-05-30T05:39:34.032Z,45.67
2023-05-30T05:42:36.748Z,46.25
2023-05-30T05:45:39.473Z,46.28
2023-05-30T05:48:43.564Z,45.97
2023-05-30T05:51:46.377Z,45.65
2023-05-30T05:54:49.093Z,45.06
2023-05-30T05:57:55.243Z,43.71
2023-05-30T06:00:59.910Z,43.40
2023-05-30T06:04:11.828Z,43.67
2023-05-30T06:07:15.306Z,43.17
2023-05-30T06:10:18.064Z,41.76
2023-05-30T06:13:20.771Z,41.03
2023-05-30T06:16:23.586Z,40.07
2023-05-30T06:19:27.741Z,39.86
2023-05-30T06:22:30.480Z,39.75
2023-05-30T06:25:33.193Z,39.69
2023-05-30T06:28:36.751Z,39.30
2023-05-30T06:31:39.575Z,36.33
2023-05-30T06:34:43.718Z,33.16
2023-05-30T06:37:47.182Z,32.64
2023-05-30T06:40:49.882Z,33.35
2023-05-30T06:43:53.031Z,31.87
2023-05-30T06:46:56.706Z,32.58
2023-05-30T06:50:00.830Z,33.06
2023-05-30T06:53:03.850Z,33.44
2023-05-30T06:56:07.258Z,32.26
2023-05-30T06:59:09.963Z,32.85
2023-05-30T07:02:12.708Z,31.44
2023-05-30T07:05:16.874Z,31.65
2023-05-30T07:08:19.739Z,30.98
2023-05-30T07:11:23.423Z,30.38
2023-05-30T07:14:26.258Z,30.62
2023-05-30T07:17:29.203Z,31.45
2023-05-30T07:20:33.458Z,30.94
2023-05-30T07:23:36.603Z,30.48
2023-05-30T07:26:39.327Z,31.03
2023-05-30T07:29:42.335Z,30.80
2023-05-30T07:32:45.083Z,30.91
2023-05-30T07:35:49.305Z,30.44
2023-05-30T07:38:52.160Z,30.95
2023-05-30T07:41:54.907Z,30.91
2023-05-30T07:44:57.610Z,30.46
2023-05-30T07:48:00.407Z,31.26
2023-05-30T07:51:04.562Z,31.09
2023-05-30T07:54:07.688Z,31.17
2023-05-30T07:57:14.013Z,31.52
2023-05-30T08:00:17.453Z,31.28
2023-05-30T08:03:20.282Z,31.19
2023-05-30T08:06:24.806Z,31.60
2023-05-30T08:09:27.750Z,31.66
2023-05-30T08:12:31.043Z,31.89
2023-05-30T08:15:33.743Z,32.28
2023-05-30T08:18:36.693Z,33.29
2023-05-30T08:21:40.889Z,33.77
2023-05-30T08:24:44.185Z,33.80
2023-05-30T08:27:46.882Z,34.53
2023-05-30T08:30:51.095Z,33.88
2023-05-30T08:33:53.902Z,34.51
2023-05-30T08:36:58.074Z,34.85
2023-05-30T08:40:00.795Z,34.73
2023-05-30T08:43:04.226Z,34.42
2023-05-30T08:46:07.116Z,34.32
2023-05-30T08:49:12.843Z,34.02
2023-05-30T08:52:18.103Z,34.27
2023-05-30T08:55:26.211Z,33.99
2023-05-30T08:58:34.874Z,33.56
2023-05-30T09:01:39.341Z,33.53
2023-05-30T09:04:43.687Z,33.75
2023-05-30T09:07:49.452Z,33.40
2023-05-30T09:10:52.669Z,32.66
2023-05-30T09:13:55.847Z,32.94
2023-05-30T09:16:58.916Z,33.30
2023-05-30T09:20:02.739Z,33.23
2023-05-30T09:23:06.995Z,32.28
2023-05-30T09:26:14.556Z,31.74
2023-05-30T09:29:17.247Z,32.11
2023-05-30T09:32:21.952Z,32.26
2023-05-30T09:35:27.220Z,32.06
2023-05-30T09:38:31.368Z,32.32
2023-05-30T09:41:36.041Z,31.97
2023-05-30T09:44:53.597Z,31.55
2023-05-30T09:47:56.537Z,31.88
2023-05-30T09:51:01.466Z,31.88
2023-05-30T09:54:07.255Z,31.70
2023-05-30T09:57:11.031Z,31.29
2023-05-30T10:00:17.383Z,31.39
2023-05-30T10:03:21.654Z,31.01
2023-05-30T10:06:24.581Z,30.82
2023-05-30T10:09:28.636Z,30.68
2023-05-30T10:12:32.375Z,30.26
2023-05-30T10:15:35.712Z,30.02
2023-05-30T10:18:56.124Z,29.84
2023-05-30T10:22:01.312Z,30.08
2023-05-30T10:25:07.087Z,30.03
2023-05-30T10:28:11.557Z,29.83
2023-05-30T10:31:16.911Z,29.64
2023-05-30T10:34:22.615Z,29.63
2023-05-30T10:37:26.186Z,29.12
2023-05-30T10:40:41.557Z,29.42
2023-05-30T10:43:52.231Z,29.32
2023-05-30T10:47:04.887Z,29.28
2023-05-30T10:50:15.253Z,28.96
2023-05-30T10:53:18.669Z,29.20
2023-05-30T10:56:41.832Z,29.64
2023-05-30T10:59:44.503Z,28.91
2023-05-30T11:02:52.910Z,28.79
2023-05-30T11:05:57.268Z,28.90
2023-05-30T11:09:07.197Z,28.96
2023-05-30T11:12:22.666Z,28.52
2023-05-30T11:15:35.360Z,28.41
2023-05-30T11:18:41.908Z,28.30
2023-05-30T11:21:59.416Z,27.43
2023-05-30T11:25:24.432Z,27.35
2023-05-30T11:28:37.181Z,27.14
2023-05-30T11:31:41.180Z,26.74
2023-05-30T11:34:43.937Z,26.68
2023-05-30T11:37:47.793Z,25.99
2023-05-30T11:40:51.934Z,25.59
2023-05-30T11:43:57.181Z,25.79
2023-05-30T11:47:01.404Z,26.07
2023-05-30T11:50:04.875Z,24.75
2023-05-30T11:53:14.603Z,25.75
2023-05-30T11:56:17.399Z,26.10
2023-05-30T11:59:22.876Z,26.20
2023-05-30T12:02:31.502Z,26.25
2023-05-30T12:05:36.643Z,26.53
2023-05-30T12:08:41.767Z,26.11
2023-05-30T12:11:58.979Z,26.10
2023-05-30T12:15:04.972Z,27.64
2023-05-30T12:18:08.397Z,26.96
2023-05-30T12:21:13.731Z,27.72
2023-05-30T12:24:16.638Z,27.35
2023-05-30T12:27:21.076Z,26.47
2023-05-30T12:30:26.216Z,26.52
2023-05-30T12:33:32.135Z,26.71
2023-05-30T12:36:34.908Z,26.78
2023-05-30T12:39:44.574Z,26.12
2023-05-30T12:42:47.354Z,25.86
2023-05-30T12:45:51.423Z,25.30
2023-05-30T12:48:54.175Z,24.94
2023-05-30T12:51:57.015Z,24.65
2023-05-30T12:54:59.730Z,24.45
2023-05-30T12:58:03.020Z,24.63
2023-05-30T13:01:07.184Z,24.27
2023-05-30T13:04:10.902Z,23.78
2023-05-30T13:07:13.856Z,23.21
2023-05-30T13:10:16.646Z,23.29
2023-05-30T13:13:19.469Z,24.04
2023-05-30T13:16:23.564Z,23.33
2023-05-30T13:19:26.377Z,22.97
2023-05-30T13:22:29.104Z,23.71
2023-05-30T13:25:31.983Z,23.12
2023-05-30T13:28:37.060Z,23.20
2023-05-30T13:31:41.391Z,23.49
2023-05-30T13:34:44.153Z,23.16
2023-05-30T13:37:46.846Z,22.46
2023-05-30T13:40:49.542Z,22.43
2023-05-30T13:43:52.540Z,22.54
2023-05-30T13:46:56.663Z,22.77
2023-05-30T13:49:59.813Z,22.80
2023-05-30T13:53:03.828Z,22.42
2023-05-30T13:56:08.230Z,23.08
2023-05-30T13:59:10.980Z,22.69
2023-05-30T14:02:15.089Z,23.21
2023-05-30T14:05:18.953Z,23.57
2023-05-30T14:08:21.945Z,22.92
2023-05-30T14:11:24.720Z,23.24
2023-05-30T14:14:27.909Z,22.26
2023-05-30T14:17:31.972Z,22.18
2023-05-30T14:20:34.975Z,22.55
2023-05-30T14:23:37.886Z,22.29
2023-05-30T14:26:43.739Z,20.39
2023-05-30T14:29:47.045Z,21.07
2023-05-30T14:32:51.512Z,21.28
2023-05-30T14:35:54.414Z,22.30
2023-05-30T14:38:57.366Z,22.52
2023-05-30T14:42:00.850Z,21.97
2023-05-30T14:45:04.567Z,21.39
2023-05-30T14:48:09.840Z,21.43
2023-05-30T14:51:12.662Z,21.34
2023-05-30T14:54:15.591Z,21.52
2023-05-30T14:57:18.380Z,22.02
2023-05-30T15:00:21.680Z,21.58
2023-05-30T15:03:25.749Z,21.03
2023-05-30T15:06:28.488Z,20.64
2023-05-30T15:09:31.882Z,20.21
2023-05-30T15:12:34.563Z,20.04
2023-05-30T15:15:37.505Z,20.52
2023-05-30T15:18:41.950Z,20.63
2023-05-30T15:21:44.939Z,20.83
2023-05-30T15:24:47.827Z,19.92
2023-05-30T15:27:52.181Z,20.27
2023-05-30T15:30:55.037Z,20.68
2023-05-30T15:33:59.233Z,20.84
2023-05-30T15:37:03.858Z,20.79
2023-05-30T15:40:07.482Z,20.08
2023-05-30T15:43:10.468Z,19.58
2023-05-30T15:46:18.517Z,19.21
2023-05-30T15:49:22.963Z,19.47
2023-05-30T15:52:25.684Z,19.56
2023-05-30T15:55:28.694Z,18.99
2023-05-30T15:58:31.472Z,19.42
2023-05-30T16:01:34.516Z,18.71
2023-05-30T16:04:38.694Z,18.79
2023-05-30T16:07:41.716Z,19.27
2023-05-30T16:10:44.566Z,19.60
2023-05-30T16:13:50.812Z,19.68
2023-05-30T16:16:53.679Z,20.19
2023-05-30T16:19:57.896Z,20.12
2023-05-30T16:23:00.742Z,20.11
2023-05-30T16:26:04.751Z,20.02
2023-05-30T16:29:07.460Z,19.72
2023-05-30T16:32:10.197Z,19.83
2023-05-30T16:35:14.258Z,20.41
2023-05-30T16:38:16.964Z,20.51
2023-05-30T16:41:19.806Z,20.30
2023-05-30T16:44:22.781Z,20.70
2023-05-30T16:47:25.592Z,20.95
2023-05-30T16:50:29.744Z,21.55
2023-05-30T16:53:32.678Z,21.21
2023-05-30T16:56:35.448Z,21.85
2023-05-30T16:59:38.823Z,21.50
2023-05-30T17:02:41.796Z,21.82
2023-05-30T17:05:47.201Z,22.05
2023-05-30T17:08:49.932Z,22.54
2023-05-30T17:11:52.955Z,21.85
2023-05-30T17:14:55.668Z,22.18
2023-05-30T17:17:58.508Z,21.93
2023-05-30T17:21:02.959Z,22.74
2023-05-30T17:24:09.251Z,23.65
2023-05-30T17:27:12.045Z,22.78
2023-05-30T17:30:15.070Z,22.84
2023-05-30T17:33:17.830Z,22.61
2023-05-30T17:36:21.851Z,23.04
2023-05-30T17:39:25.704Z,23.00
2023-05-30T17:42:29.642Z,23.56
2023-05-30T17:45:32.549Z,23.57
2023-05-30T17:48:35.517Z,23.63
2023-05-30T17:51:40.089Z,23.60
2023-05-30T17:54:42.900Z,24.18
2023-05-30T17:57:45.804Z,24.21
2023-05-30T18:00:48.538Z,24.53
2023-05-30T18:03:51.364Z,24.67
2023-05-30T18:06:56.329Z,25.32
2023-05-30T18:09:59.403Z,25.21
2023-05-30T18:13:02.385Z,25.27
2023-05-30T18:16:05.134Z,25.76
2023-05-30T18:19:07.835Z,25.84
2023-05-30T18:22:12.153Z,26.05
2023-05-30T18:25:14.865Z,26.49
2023-05-30T18:28:17.616Z,26.82
2023-05-30T18:31:20.983Z,26.83
2023-05-30T18:34:23.747Z,27.18
2023-05-30T18:37:28.076Z,27.22
2023-05-30T18:40:30.760Z,27.38
2023-05-30T18:43:33.511Z,27.81
2023-05-30T18:46:37.450Z,27.97
2023-05-30T18:49:40.651Z,28.06
2023-05-30T18:52:44.773Z,27.99
2023-05-30T18:55:47.627Z,28.14
2023-05-30T18:58:50.594Z,28.23
2023-05-30T19:01:53.590Z,28.22
2023-05-30T19:04:56.655Z,28.56
2023-05-30T19:08:00.731Z,28.97
2023-05-30T19:11:05.049Z,28.92
2023-05-30T19:14:07.858Z,29.20
2023-05-30T19:17:10.604Z,29.67
2023-05-30T19:20:13.441Z,29.77
2023-05-30T19:23:17.562Z,30.03
2023-05-30T19:26:20.330Z,31.15
2023-05-30T19:29:23.071Z,32.28
2023-05-30T19:32:25.849Z,32.78
2023-05-30T19:35:28.671Z,33.04
2023-05-30T19:38:32.715Z,32.96
2023-05-30T19:41:35.494Z,33.21
2023-05-30T19:44:38.190Z,33.26
2023-05-30T19:47:41.011Z,33.21
2023-05-30T19:50:43.862Z,33.67
2023-05-30T19:53:48.756Z,34.29
2023-05-30T19:56:52.177Z,34.42
2023-05-30T19:59:54.830Z,34.73
2023-05-30T20:02:58.549Z,35.97
2023-05-30T20:06:01.685Z,36.52
2023-05-30T20:09:06.568Z,36.63
2023-05-30T20:12:10.128Z,36.98
2023-05-30T20:15:12.830Z,36.61
2023-05-30T20:18:15.665Z,36.13
2023-05-30T20:21:19.062Z,35.97
2023-05-30T20:24:23.305Z,36.00
2023-05-30T20:27:26.150Z,36.03
2023-05-30T20:30:28.908Z,36.58
2023-05-30T20:33:31.643Z,37.23
2023-05-30T20:36:34.533Z,37.63
2023-05-30T20:39:38.644Z,38.13
2023-05-30T20:42:41.854Z,38.07
2023-05-30T20:45:44.651Z,38.27
2023-05-30T20:48:47.578Z,37.70
2023-05-30T20:51:50.336Z,38.08
2023-05-30T20:54:54.362Z,37.58
2023-05-30T20:57:57.148Z,37.18
2023-05-30T21:01:00.106Z,37.38
2023-05-30T21:04:03.246Z,37.03
2023-05-30T21:07:06.791Z,36.83
2023-05-30T21:10:11.600Z,37.35
2023-05-30T21:13:14.389Z,36.97
2023-05-30T21:16:17.097Z,37.20
2023-05-30T21:19:20.018Z,37.11
2023-05-30T21:22:22.738Z,37.22
2023-05-30T21:25:26.838Z,37.57
2023-05-30T21:28:29.723Z,37.55
2023-05-30T21:31:32.597Z,37.39
2023-05-30T21:34:35.398Z,37.80
2023-05-30T21:37:38.086Z,38.20
2023-05-30T21:40:43.752Z,38.04
2023-05-30T21:43:46.480Z,37.95
2023-05-30T21:46:49.244Z,38.30
2023-05-30T21:49:51.987Z,38.58
2023-05-30T21:52:54.841Z,38.81
2023-05-30T21:55:59.018Z,38.76
2023-05-30T21:59:02.677Z,38.74
2023-05-30T22:02:06.170Z,38.72
2023-05-30T22:05:09.671Z,39.06
2023-05-30T22:08:12.402Z,39.38
2023-05-30T22:11:16.549Z,39.14
2023-05-30T22:14:20.146Z,39.87
2023-05-30T22:17:22.860Z,39.87
2023-05-30T22:20:25.914Z,40.28
2023-05-30T22:23:28.749Z,40.01
2023-05-30T22:26:32.862Z,40.79
2023-05-30T22:29:35.531Z,40.70
2023-05-30T22:32:38.673Z,41.21
2023-05-30T22:35:41.450Z,41.30
2023-05-30T22:38:44.264Z,41.65
2023-05-30T22:41:48.335Z,41.30
2023-05-30T22:44:51.063Z,41.64
2023-05-30T22:47:53.802Z,41.67
2023-05-30T22:50:56.569Z,42.21
2023-05-30T22:53:59.326Z,42.13
2023-05-30T22:57:03.784Z,42.07
2023-05-30T23:00:08.347Z,42.36
2023-05-30T23:03:13.383Z,42.19
2023-05-30T23:06:16.539Z,42.33
2023-05-30T23:09:19.599Z,42.29
2023-05-30T23:12:23.672Z,42.54
2023-05-30T23:15:26.327Z,42.63
2023-05-30T23:18:29.033Z,42.67
2023-05-30T23:21:31.830Z,42.46
2023-05-30T23:24:34.845Z,42.83
2023-05-30T23:27:38.891Z,42.48
2023-05-30T23:30:41.900Z,42.40
2023-05-30T23:33:44.635Z,42.65
2023-05-30T23:36:47.683Z,42.55
2023-05-30T23:39:50.452Z,42.72
2023-05-30T23:42:54.562Z,43.00
2023-05-30T23:45:57.315Z,42.69
2023-05-30T23:49:00.057Z,43.19
2023-05-30T23:52:03.563Z,42.99
2023-05-30T23:55:07.295Z,43.22
2023-05-30T23:58:11.357Z,43.10
